Time;durP1;ratioP1;P1;durP2;ratioP2;P2;SDS_P1;SDS_P2;PMS_P1;PMS_P2;Temp;Humidity;BMP_temperature;BMP_pressure;BME280_temperature;BME280_humidity;BME280_pressure;Samples;Min_cycle;Max_cycle;Signal;HPM_P1;HPM_P2
2022/08/26 00:01:41;;;;;;;8.05;6.35;;;;;;;21.72;68.08;100962.50;6015841;23;20413;-76
2022/08/26 00:04:10;;;;;;;6.50;6.10;;;;;;;21.81;69.26;100990.16;6076006;23;20060;-75
2022/08/26 00:06:37;;;;;;;6.90;6.45;;;;;;;21.78;69.20;100999.31;6020126;23;20031;-74
2022/08/26 00:09:12;;;;;;;8.05;7.55;;;;;;;21.75;70.34;100999.63;6073098;23;20032;-75
2022/08/26 00:11:42;;;;;;;7.55;7.05;;;;;;;21.74;71.32;101008.63;6033241;23;20082;-74
2022/08/26 00:14:10;;;;;;;8.07;7.50;;;;;;;21.32;72.64;100943.03;6007012;23;20021;-75
2022/08/26 00:16:36;;;;;;;8.00;7.22;;;;;;;21.47;72.99;100964.84;6045701;23;20025;-74
2022/08/26 00:19:13;;;;;;;8.73;8.15;;;;;;;21.65;74.57;100996.13;6063528;23;20049;-74
2022/08/26 00:21:40;;;;;;;7.85;7.20;;;;;;;21.41;77.32;100961.84;6032349;23;20092;-74
2022/08/26 00:24:06;;;;;;;9.25;8.35;;;;;;;21.42;77.35;100961.72;6073050;23;20069;-74
2022/08/26 00:26:33;;;;;;;9.25;8.45;;;;;;;21.61;80.34;101002.72;6044814;23;20014;-75
2022/08/26 00:29:00;;;;;;;9.68;8.77;;;;;;;21.34;81.58;100968.78;6074221;23;20021;-74
2022/08/26 00:31:26;;;;;;;12.35;9.98;;;;;;;21.34;83.63;100963.44;6007433;23;20477;-75
2022/08/26 00:33:56;;;;;;;11.07;9.65;;;;;;;21.19;87.12;100949.66;6083735;23;20075;-75
2022/08/26 00:36:23;;;;;;;14.60;10.45;;;;;;;21.49;88.02;101000.25;6037827;23;20666;-75
2022/08/26 00:38:49;;;;;;;13.30;11.40;;;;;;;20.49;90.10;100843.16;6083598;23;20089;-75
2022/08/26 00:41:18;;;;;;;11.95;10.85;;;;;;;21.45;89.49;101006.88;6046331;23;20050;-75
2022/08/26 00:43:45;;;;;;;13.88;12.00;;;;;;;21.40;92.62;101013.59;6080240;23;20354;-74
2022/08/26 00:46:19;;;;;;;15.07;13.48;;;;;;;21.12;94.28;100978.75;6043012;23;20025;-75
2022/08/26 00:48:48;;;;;;;13.60;12.05;;;;;;;21.32;94.97;101000.94;6080488;23;20483;-75
2022/08/26 00:51:21;;;;;;;17.40;14.40;;;;;;;21.38;96.53;101008.38;6029780;23;20077;-75
2022/08/26 00:53:55;;;;;;;19.50;12.82;;;;;;;21.16;99.08;100976.66;6006131;23;20077;-74
2022/08/26 00:56:32;;;;;;;15.55;14.02;;;;;;;21.40;99.61;101019.75;6051929;23;20360;-75
2022/08/26 00:59:04;;;;;;;18.33;14.55;;;;;;;21.27;100.00;100992.53;6017139;23;20666;-75
2022/08/26 01:01:31;;;;;;;21.63;15.43;;;;;;;21.15;100.00;100974.97;6086751;23;20038;-74
2022/08/26 01:03:59;;;;;;;20.25;15.30;;;;;;;21.00;100.00;100945.22;6021583;23;20018;-75
2022/08/26 01:06:27;;;;;;;20.42;16.15;;;;;;;21.14;100.00;100958.13;6081695;23;20054;-74
2022/08/26 01:08:54;;;;;;;22.40;16.15;;;;;;;21.23;100.00;100975.94;6030817;23;20355;-74
2022/08/26 01:11:20;;;;;;;20.75;17.95;;;;;;;21.09;100.00;100963.06;6071259;23;20466;-75
2022/08/26 01:13:52;;;;;;;23.42;17.77;;;;;;;21.30;100.00;101011.75;6026968;23;20057;-74
2022/08/26 01:16:19;;;;;;;28.20;18.52;;;;;;;21.31;100.00;101001.94;6064325;23;20703;-75
2022/08/26 01:18:47;;;;;;;21.55;16.33;;;;;;;21.29;100.00;101009.25;6047719;23;20084;-75
2022/08/26 01:21:39;;;;;;;26.52;17.50;;;;;;;21.07;100.00;100981.03;6070491;23;20043;-75
2022/08/26 01:24:08;;;;;;;18.83;16.80;;;;;;;21.18;100.00;101006.72;6051100;23;20002;-74
2022/08/26 01:26:40;;;;;;;22.63;15.63;;;;;;;21.15;100.00;101007.84;6070050;23;20039;-75
2022/08/26 01:29:18;;;;;;;25.58;17.98;;;;;;;21.14;100.00;101005.31;6039225;23;20085;-75
2022/08/26 01:31:51;;;;;;;26.85;18.23;;;;;;;21.07;100.00;101000.56;6034068;23;20003;-74
2022/08/26 01:34:37;;;;;;;27.65;18.55;;;;;;;21.08;100.00;101002.22;6057563;23;20014;-74
2022/08/26 01:37:12;;;;;;;25.70;17.95;;;;;;;21.00;100.00;101015.41;6082342;23;20026;-74
2022/08/26 01:39:43;;;;;;;28.15;17.52;;;;;;;20.83;100.00;100984.13;6041094;23;20038;-74
2022/08/26 01:42:13;;;;;;;23.35;18.67;;;;;;;20.90;100.00;101006.56;6068237;23;20105;-75
2022/08/26 01:44:50;;;;;;;24.80;18.45;;;;;;;20.85;100.00;101009.66;6039990;23;20007;-74
2022/08/26 01:47:20;;;;;;;20.95;16.77;;;;;;;20.83;100.00;101010.81;5996233;23;20050;-74
2022/08/26 01:49:50;;;;;;;24.85;18.33;;;;;;;20.80;100.00;101011.91;6037804;23;20038;-75
2022/08/26 01:52:27;;;;;;;22.20;17.83;;;;;;;20.80;100.00;101011.91;6055097;23;20089;-74
2022/08/26 01:54:56;;;;;;;22.75;16.83;;;;;;;20.25;100.00;100948.38;6053453;23;20082;-74
2022/08/26 01:57:23;;;;;;;25.70;19.85;;;;;;;20.67;100.00;101014.84;6015217;23;20023;-73
2022/08/26 01:59:52;;;;;;;22.58;16.88;;;;;;;19.53;100.00;100838.34;6071229;23;20014;-74
2022/08/26 02:02:19;;;;;;;22.90;17.73;;;;;;;20.12;100.00;100937.94;6048325;23;20050;-74
2022/08/26 02:04:51;;;;;;;27.40;18.27;;;;;;;20.59;100.00;101017.38;6065841;23;20129;-74
2022/08/26 02:07:20;;;;;;;22.83;17.70;;;;;;;20.43;100.00;100991.19;6038495;23;20078;-74
2022/08/26 02:09:47;;;;;;;26.02;17.27;;;;;;;20.44;100.00;101008.84;6080402;23;20028;-74
2022/08/26 02:12:17;;;;;;;22.52;18.75;;;;;;;20.25;100.00;101000.81;6039407;23;20023;-74
2022/08/26 02:14:50;;;;;;;26.55;17.40;;;;;;;20.47;100.00;101026.44;6041325;23;20030;-74
2022/08/26 02:17:21;;;;;;;24.30;17.90;;;;;;;20.16;100.00;100990.97;6011215;23;20034;-74
2022/08/26 02:19:49;;;;;;;22.15;17.33;;;;;;;20.42;100.00;101037.47;6082867;23;20014;-74
2022/08/26 02:22:19;;;;;;;26.23;18.17;;;;;;;20.41;100.00;101037.63;6054378;23;20463;-74
2022/08/26 02:24:51;;;;;;;26.30;17.38;;;;;;;20.35;100.00;101035.47;6011896;23;20031;-74
2022/08/26 02:27:34;;;;;;;22.92;17.10;;;;;;;20.35;100.00;101031.03;6076342;23;20093;-74
2022/08/26 02:30:15;;;;;;;21.00;16.35;;;;;;;20.31;100.00;101025.09;6049422;23;20032;-74
2022/08/26 02:32:43;;;;;;;21.30;16.52;;;;;;;19.87;100.00;100965.91;6070897;23;20021;-74
2022/08/26 02:35:12;;;;;;;22.75;15.55;;;;;;;20.26;100.00;101035.31;6011460;23;20089;-75
2022/08/26 02:37:43;;;;;;;19.95;15.00;;;;;;;20.25;100.00;101036.31;6079396;23;20006;-74
2022/08/26 02:40:14;;;;;;;23.33;17.52;;;;;;;19.76;100.00;100963.31;6055090;23;20023;-74
2022/08/26 02:42:40;;;;;;;21.77;14.55;;;;;;;19.79;100.00;100963.06;6007427;23;20027;-74
2022/08/26 02:45:09;;;;;;;23.08;15.80;;;;;;;19.99;100.00;101003.13;6083924;23;20420;-74
2022/08/26 02:47:36;;;;;;;19.92;14.98;;;;;;;19.89;100.00;100993.25;6048530;23;20048;-74
2022/08/26 02:50:04;;;;;;;19.67;15.32;;;;;;;19.87;100.00;100989.03;6011275;23;20046;-74
2022/08/26 02:52:31;;;;;;;20.58;15.45;;;;;;;20.09;100.00;101033.31;6070869;23;20073;-74
2022/08/26 02:54:57;;;;;;;21.85;15.70;;;;;;;20.12;100.00;101027.69;6023478;23;20018;-74
2022/08/26 02:57:24;;;;;;;18.48;14.68;;;;;;;19.83;100.00;100983.13;6076394;23;20072;-74
2022/08/26 02:59:51;;;;;;;18.73;14.45;;;;;;;19.90;100.00;100986.09;6030435;23;20039;-74
2022/08/26 03:02:17;;;;;;;23.40;16.15;;;;;;;20.17;100.00;101020.16;6011769;23;20023;-74
2022/08/26 03:04:44;;;;;;;17.02;13.73;;;;;;;19.87;100.00;100962.41;6083593;23;20014;-74
2022/08/26 03:07:27;;;;;;;;;;;;;;;20.17;100.00;101006.84;6035152;23;20022;-74
2022/08/26 03:09:55;;;;;;;19.48;14.93;;;;;;;20.28;100.00;101013.88;6013578;23;19926;-74
2022/08/26 03:12:22;;;;;;;20.98;16.35;;;;;;;20.22;100.00;100999.25;6059092;23;20537;-73
2022/08/26 03:14:51;;;;;;;21.58;14.38;;;;;;;20.35;100.00;101023.03;6037939;23;20019;-74
2022/08/26 03:17:17;;;;;;;21.55;15.73;;;;;;;20.31;100.00;100986.97;6045262;23;20102;-75
2022/08/26 03:19:44;;;;;;;17.77;13.13;;;;;;;20.46;100.00;101001.56;6039005;23;20025;-74
2022/08/26 03:22:10;;;;;;;18.58;13.90;;;;;;;20.47;100.00;101003.28;6055207;23;20026;-74
2022/08/26 03:24:40;;;;;;;15.30;13.13;;;;;;;20.07;100.00;100944.66;6012891;23;20085;-74
2022/08/26 03:27:11;;;;;;;16.80;13.90;;;;;;;20.52;100.00;101006.34;6070964;23;20086;-74
2022/08/26 03:32:24;;;;;;;21.50;13.10;;;;;;;20.46;100.00;100977.56;6056979;23;20626;-74
2022/08/26 03:34:53;;;;;;;16.92;12.32;;;;;;;20.60;100.00;101007.53;6051266;23;20022;-74
2022/08/26 03:37:20;;;;;;;21.42;13.30;;;;;;;20.44;100.00;100976.88;6055727;23;20093;-74
2022/08/26 03:39:47;;;;;;;15.85;12.93;;;;;;;20.60;100.00;101011.03;6006593;23;20671;-74
2022/08/26 03:42:14;;;;;;;16.05;14.15;;;;;;;20.26;100.00;100936.72;6062827;23;20019;-75
2022/08/26 03:44:41;;;;;;;18.30;12.45;;;;;;;20.43;100.00;100971.69;6051431;23;20097;-75
2022/08/26 03:47:08;;;;;;;16.45;13.35;;;;;;;20.40;100.00;100975.47;6057962;23;20026;-75
2022/08/26 03:49:34;;;;;;;14.15;11.50;;;;;;;20.54;100.00;100979.56;5999481;23;20015;-74
2022/08/26 03:52:02;;;;;;;15.57;11.90;;;;;;;20.30;100.00;100953.28;6079790;23;20030;-75
2022/08/26 03:54:29;;;;;;;12.90;11.13;;;;;;;20.53;100.00;100986.72;6025294;23;20019;-74
2022/08/26 03:56:55;;;;;;;14.43;11.32;;;;;;;20.37;100.00;100950.91;6072961;23;20022;-76
2022/08/26 03:59:22;;;;;;;13.77;12.35;;;;;;;20.22;100.00;100924.63;5999165;23;20031;-75
2022/08/26 04:01:49;;;;;;;14.70;11.32;;;;;;;20.67;100.00;101011.34;6082092;23;20020;-75
2022/08/26 04:04:17;;;;;;;15.10;11.20;;;;;;;20.65;100.00;101024.81;6032868;23;20030;-74
2022/08/26 04:06:49;;;;;;;13.27;11.40;;;;;;;20.11;100.00;100922.94;6065009;23;20010;-75
2022/08/26 04:09:19;;;;;;;14.07;12.45;;;;;;;20.61;100.00;101003.91;6054714;23;20022;-75
2022/08/26 04:11:47;;;;;;;11.93;10.45;;;;;;;20.61;100.00;100995.91;6086803;23;20010;-74
2022/08/26 04:14:20;;;;;;;12.48;11.40;;;;;;;20.67;100.00;101004.19;6034710;23;20456;-74
2022/08/26 04:16:47;;;;;;;12.73;10.50;;;;;;;20.40;100.00;100963.97;6017228;23;20019;-74
2022/08/26 04:19:14;;;;;;;14.30;11.70;;;;;;;20.24;100.00;100929.84;6066531;23;20041;-75
2022/08/26 04:21:41;;;;;;;11.52;9.95;;;;;;;20.21;100.00;100936.28;6032249;23;20021;-74
2022/08/26 04:24:10;;;;;;;11.40;10.32;;;;;;;20.47;100.00;100962.44;6048275;23;20017;-74
2022/08/26 04:26:37;;;;;;;11.40;9.63;;;;;;;20.45;100.00;100959.91;6037884;23;20050;-75
2022/08/26 04:29:18;;;;;;;14.25;11.07;;;;;;;20.38;100.00;100947.25;6024626;23;20002;-73
2022/08/26 04:31:46;;;;;;;11.88;10.52;;;;;;;20.67;100.00;101003.34;6055224;23;20026;-75
2022/08/26 04:34:13;;;;;;;11.95;10.85;;;;;;;20.61;100.00;101004.72;6051418;23;20600;-75
2022/08/26 04:36:41;;;;;;;12.30;10.48;;;;;;;20.53;100.00;100980.56;6029937;23;20099;-74
2022/08/26 04:39:15;;;;;;;14.05;10.70;;;;;;;20.69;100.00;100998.72;6071256;23;20519;-74
2022/08/26 04:41:44;;;;;;;13.57;9.95;;;;;;;20.67;100.00;100998.84;6006139;23;20086;-74
2022/08/26 04:44:10;;;;;;;11.85;10.75;;;;;;;20.49;100.00;100981.81;6079680;23;20037;-74
2022/08/26 04:46:37;;;;;;;10.05;8.13;;;;;;;20.46;100.00;100982.06;6007287;23;20594;-74
2022/08/26 04:49:09;;;;;;;9.82;9.02;;;;;;;20.50;100.00;100968.31;6042348;23;20034;-78
2022/08/26 04:51:36;;;;;;;9.88;9.05;;;;;;;20.70;100.00;100987.03;6054229;23;20023;-76
2022/08/26 04:54:05;;;;;;;11.18;9.48;;;;;;;20.79;100.00;101015.56;6081864;23;20025;-76
2022/08/26 04:56:36;;;;;;;9.05;8.30;;;;;;;20.80;100.00;101003.91;6054983;23;20098;-76
2022/08/26 04:59:05;;;;;;;14.50;8.85;;;;;;;20.48;100.00;100956.09;6083355;23;20025;-76
2022/08/26 05:01:33;;;;;;;10.23;9.23;;;;;;;20.28;100.00;100924.09;6054704;23;20090;-76
2022/08/26 05:04:04;;;;;;;9.73;8.70;;;;;;;20.62;100.00;100966.41;6085627;23;20034;-76
2022/08/26 05:06:33;;;;;;;10.30;9.40;;;;;;;20.76;100.00;100986.50;6021862;23;20096;-76
2022/08/26 05:09:05;;;;;;;13.55;8.88;;;;;;;20.90;100.00;101020.75;6076159;23;20018;-75
2022/08/26 05:11:32;;;;;;;9.45;8.65;;;;;;;20.57;100.00;100946.44;6060929;23;20048;-77
2022/08/26 05:13:59;;;;;;;10.48;9.57;;;;;;;20.74;100.00;100983.13;6017920;23;20417;-76
2022/08/26 05:16:29;;;;;;;8.82;8.02;;;;;;;20.78;100.00;100978.34;6048210;23;20030;-76
2022/08/26 05:18:56;;;;;;;9.32;8.52;;;;;;;20.35;100.00;100902.22;6028786;23;20027;-76
2022/08/26 05:21:26;;;;;;;9.52;8.82;;;;;;;21.08;100.00;101010.22;6080222;23;20245;-76
2022/08/26 05:23:53;;;;;;;9.52;8.52;;;;;;;20.64;100.00;100928.94;6052760;23;20039;-76
2022/08/26 05:26:26;;;;;;;12.60;9.32;;;;;;;21.19;100.00;101006.59;6073377;23;20045;-76
2022/08/26 05:28:53;;;;;;;9.52;8.60;;;;;;;21.18;100.00;101002.22;6034052;23;20101;-76
2022/08/26 05:31:31;;;;;;;10.45;9.48;;;;;;;21.07;100.00;100989.88;6076771;23;20033;-76
2022/08/26 05:33:59;;;;;;;9.13;8.40;;;;;;;21.05;100.00;100975.00;6059925;23;20014;-75
2022/08/26 05:36:32;;;;;;;8.32;7.72;;;;;;;21.22;100.00;101003.63;5999113;23;20739;-77
2022/08/26 05:39:00;;;;;;;9.13;8.13;;;;;;;21.12;100.00;100984.94;6060899;23;20045;-76
2022/08/26 05:41:33;;;;;;;8.43;7.82;;;;;;;20.31;100.00;100873.19;6034987;23;20019;-76
2022/08/26 05:44:09;;;;;;;10.15;7.88;;;;;;;21.19;100.00;101005.72;6076906;23;20029;-75
2022/08/26 05:46:37;;;;;;;9.35;8.45;;;;;;;21.21;100.00;101015.28;6040798;23;20084;-75
2022/08/26 05:49:07;;;;;;;8.43;7.72;;;;;;;21.16;100.00;100996.19;6070555;23;20029;-76
2022/08/26 05:51:38;;;;;;;8.13;7.53;;;;;;;20.90;100.00;100934.53;6010734;23;20011;-76
2022/08/26 05:54:07;;;;;;;8.68;7.88;;;;;;;21.40;100.00;101013.59;6085616;23;20021;-76
2022/08/26 05:56:36;;;;;;;8.95;8.25;;;;;;;21.46;100.00;101005.88;6050976;23;20605;-76
2022/08/26 05:59:03;;;;;;;8.18;7.50;;;;;;;21.18;100.00;100962.19;6086712;23;20037;-76
2022/08/26 06:01:30;;;;;;;8.98;8.05;;;;;;;21.30;100.00;100973.53;6050799;23;20077;-77
2022/08/26 06:04:01;;;;;;;7.40;6.90;;;;;;;20.97;100.00;100913.47;6029512;23;20033;-75
2022/08/26 06:06:31;;;;;;;9.02;8.32;;;;;;;21.52;100.00;100999.94;6071210;23;20030;-78
2022/08/26 06:08:59;;;;;;;7.90;7.30;;;;;;;21.67;100.00;100999.50;6034133;23;20019;-77
2022/08/26 06:11:27;;;;;;;8.95;8.25;;;;;;;21.65;100.00;101007.66;6027676;23;20033;-76
2022/08/26 06:13:57;;;;;;;9.23;7.60;;;;;;;21.44;100.00;100972.28;6065795;23;20041;-76
2022/08/26 06:16:32;;;;;;;8.15;7.55;;;;;;;21.81;100.00;101007.06;6031065;23;20623;-76
2022/08/26 06:19:01;;;;;;;7.50;7.00;;;;;;;21.49;100.00;100938.84;6013610;23;20015;-76
2022/08/26 06:21:31;;;;;;;8.40;7.57;;;;;;;22.01;100.00;101012.31;6026585;23;20077;-78
2022/08/26 06:27:01;;;;;;;7.13;6.65;;;;;;;22.15;100.00;101019.00;6044171;23;20018;-77
2022/08/26 06:29:30;;;;;;;7.30;6.90;;;;;;;21.92;100.00;100969.44;6073012;23;20025;-76
2022/08/26 06:31:57;;;;;;;7.90;7.30;;;;;;;22.13;100.00;101016.50;6053053;23;20089;-75
2022/08/26 06:34:24;;;;;;;8.38;7.68;;;;;;;21.42;100.00;100916.31;6055098;23;20089;-75
2022/08/26 06:36:57;;;;;;;7.65;6.90;;;;;;;21.85;100.00;100995.09;6038983;23;20037;-77
2022/08/26 06:39:23;;;;;;;8.07;7.57;;;;;;;21.66;100.00;101012.00;6073406;23;20054;-75
2022/08/26 06:41:50;;;;;;;7.20;6.72;;;;;;;21.66;100.00;101022.69;6027613;23;20133;-76
2022/08/26 06:44:17;;;;;;;8.52;7.82;;;;;;;21.59;100.00;101018.06;6070795;23;20024;-76
2022/08/26 06:46:44;;;;;;;7.25;6.75;;;;;;;21.40;100.00;100973.53;6051244;23;20026;-77
2022/08/26 06:49:15;;;;;;;8.60;7.97;;;;;;;21.10;100.00;100912.19;6053952;23;20030;-77
2022/08/26 06:51:42;;;;;;;7.07;6.57;;;;;;;21.80;100.00;101016.03;6030134;23;20041;-76
2022/08/26 06:54:09;;;;;;;7.85;7.25;;;;;;;21.82;100.00;101000.72;6069666;23;20030;-75
2022/08/26 06:56:41;;;;;;;6.97;6.57;;;;;;;21.96;100.00;101014.59;6056321;23;20572;-76
2022/08/26 06:59:10;;;;;;;7.83;7.33;;;;;;;21.58;100.00;100947.78;6078606;23;20058;-76
2022/08/26 07:01:43;;;;;;;7.18;6.68;;;;;;;22.04;100.00;101020.88;6046829;23;20911;-75
2022/08/26 07:04:13;;;;;;;7.88;7.38;;;;;;;21.46;100.00;100951.63;6066757;23;20024;-76
2022/08/26 07:06:45;;;;;;;7.28;6.78;;;;;;;21.98;100.00;101034.00;5999267;23;20031;-76
2022/08/26 07:09:13;;;;;;;7.55;7.05;;;;;;;21.97;100.00;101030.50;6072202;23;20641;-76
2022/08/26 07:11:40;;;;;;;7.65;6.97;;;;;;;21.94;100.00;101036.13;6025555;23;21631;-76
2022/08/26 07:14:07;;;;;;;7.13;6.72;;;;;;;21.94;100.00;101029.94;6055493;23;20092;-76
2022/08/26 07:16:34;;;;;;;7.35;6.70;;;;;;;21.58;100.00;100971.81;6005909;23;20382;-76
2022/08/26 07:19:03;;;;;;;10.60;6.38;;;;;;;21.80;100.00;101012.53;6063095;23;20048;-76
2022/08/26 07:21:40;;;;;;;7.22;6.72;;;;;;;21.85;100.00;101024.47;6032074;23;20094;-76
2022/08/26 07:24:07;;;;;;;7.45;6.95;;;;;;;21.82;100.00;101013.22;6073988;23;20022;-75
2022/08/26 07:26:36;;;;;;;6.75;6.25;;;;;;;21.97;100.00;101042.97;6045943;23;20014;-75
2022/08/26 07:29:05;;;;;;;7.03;6.53;;;;;;;21.40;100.00;100953.00;6067561;23;20112;-75
2022/08/26 07:31:35;;;;;;;7.57;6.97;;;;;;;21.42;100.00;100956.38;6014803;23;20018;-76
2022/08/26 07:34:08;;;;;;;7.72;7.22;;;;;;;21.71;100.00;101000.91;6037893;23;20377;-76
2022/08/26 07:36:35;;;;;;;7.30;6.80;;;;;;;21.76;100.00;101019.16;6008126;23;20019;-76
2022/08/26 07:39:01;;;;;;;7.22;6.63;;;;;;;21.95;100.00;101044.97;6075093;23;20016;-76
2022/08/26 07:41:28;;;;;;;7.68;7.07;;;;;;;21.88;100.00;101050.88;6040251;23;20034;-76
2022/08/26 07:43:59;;;;;;;7.32;6.82;;;;;;;21.72;100.00;101034.63;6010580;23;20531;-76
2022/08/26 07:46:26;;;;;;;8.40;7.70;;;;;;;21.69;100.00;101051.81;6064556;23;20014;-74
2022/08/26 07:48:57;;;;;;;7.47;6.90;;;;;;;21.41;100.00;101015.25;6009205;23;20026;-76
2022/08/26 07:51:24;;;;;;;8.10;7.35;;;;;;;21.65;100.00;101057.56;6066757;23;20046;-75
2022/08/26 07:53:53;;;;;;;7.80;7.03;;;;;;;21.68;100.00;101059.94;6035748;23;20459;-74
2022/08/26 07:56:21;;;;;;;8.10;7.60;;;;;;;20.62;100.00;100883.72;6081008;23;20034;-75
2022/08/26 07:58:48;;;;;;;6.90;6.43;;;;;;;21.48;100.00;101033.25;6016960;23;20029;-75
2022/08/26 08:01:22;;;;;;;7.82;7.32;;;;;;;21.61;100.00;101045.47;6085313;23;20029;-75
2022/08/26 08:03:50;;;;;;;6.93;6.43;;;;;;;21.66;100.00;101062.75;6024333;23;20071;-76
2022/08/26 08:06:19;;;;;;;7.70;7.22;;;;;;;21.43;100.00;101018.66;6081401;23;20042;-75
2022/08/26 08:08:46;;;;;;;9.13;7.38;;;;;;;21.69;100.00;101059.81;6038786;23;20028;-76
2022/08/26 08:11:19;;;;;;;8.35;7.57;;;;;;;21.10;100.00;100956.72;6071887;23;20033;-76
2022/08/26 08:13:46;;;;;;;6.95;6.45;;;;;;;21.31;100.00;100997.44;6023757;23;20407;-76
2022/08/26 08:16:14;;;;;;;8.40;7.80;;;;;;;21.71;100.00;101051.66;6079278;23;20403;-75
2022/08/26 08:18:40;;;;;;;7.00;6.50;;;;;;;20.96;100.00;100946.47;6056299;23;20041;-75
2022/08/26 08:21:07;;;;;;;7.32;6.82;;;;;;;21.67;100.00;101061.78;6028962;23;20662;-75
2022/08/26 08:23:50;;;;;;;7.55;6.95;;;;;;;21.68;100.00;101058.13;6060710;23;20010;-75
2022/08/26 08:26:17;;;;;;;9.55;8.75;;;;;;;21.35;100.00;101024.69;6083911;23;20053;-74
2022/08/26 08:28:45;;;;;;;7.25;6.78;;;;;;;21.49;100.00;101040.31;6036239;23;20412;-75
2022/08/26 08:31:22;;;;;;;8.23;7.65;;;;;;;21.16;100.00;100974.81;6083793;23;20029;-75
2022/08/26 08:34:08;;;;;;;8.18;7.68;;;;;;;21.62;100.00;101037.31;6028312;23;20016;-76
2022/08/26 08:36:35;;;;;;;7.18;6.68;;;;;;;21.93;100.00;101066.50;6030925;23;20639;-75
2022/08/26 08:39:02;;;;;;;6.78;6.32;;;;;;;22.01;100.00;101065.75;6084854;23;20081;-76
2022/08/26 08:42:03;;;;;;;8.00;6.82;;;;;;;22.10;99.07;101067.56;6038247;23;20032;-76
2022/08/26 08:44:31;;;;;;;6.65;6.18;;;;;;;21.69;98.12;100992.19;6079699;23;20435;-76
2022/08/26 08:47:03;;;;;;;6.47;6.07;;;;;;;22.16;97.97;101066.97;6054480;23;20019;-76
2022/08/26 08:49:32;;;;;;;;;;;;;;;21.92;98.18;101054.97;6084759;23;20026;-76
2022/08/26 08:52:01;;;;;;;7.38;6.70;;;;;;;21.98;98.71;101055.38;6056452;23;20062;-75
2022/08/26 08:54:31;;;;;;;7.13;6.72;;;;;;;21.38;97.92;100973.66;6029951;23;20660;-76
2022/08/26 08:57:11;;;;;;;6.78;6.38;;;;;;;21.77;98.03;101019.03;6086244;23;20038;-76
2022/08/26 08:59:49;;;;;;;7.13;6.68;;;;;;;21.83;98.21;101002.41;6056047;23;20032;-77
2022/08/26 09:02:34;;;;;;;8.75;7.93;;;;;;;21.24;98.30;100926.06;6077582;23;20026;-76
2022/08/26 09:05:23;;;;;;;6.82;6.43;;;;;;;22.09;98.60;101057.84;6058976;23;20049;-76
2022/08/26 09:08:02;;;;;;;6.75;6.35;;;;;;;21.56;98.92;100984.47;6086674;23;20577;-76
2022/08/26 09:10:35;;;;;;;7.10;6.55;;;;;;;21.99;99.73;101063.25;6040295;23;20006;-76
2022/08/26 09:13:13;;;;;;;6.57;6.07;;;;;;;21.43;100.00;100997.28;6069094;23;20026;-76
2022/08/26 09:15:56;;;;;;;7.13;6.68;;;;;;;22.00;100.00;101072.94;6041986;23;20006;-75
2022/08/26 09:18:29;;;;;;;8.38;7.20;;;;;;;21.93;100.00;101066.50;6025012;23;20380;-76
2022/08/26 09:21:03;;;;;;;7.00;6.50;;;;;;;21.93;100.00;101074.53;6083837;23;20014;-76
2022/08/26 09:23:32;;;;;;;6.82;6.32;;;;;;;21.89;98.53;101071.31;6054705;23;20092;-76
2022/08/26 09:26:17;;;;;;;6.80;6.40;;;;;;;21.89;97.98;101078.47;6073663;23;20577;-76
2022/08/26 09:28:57;;;;;;;7.28;6.68;;;;;;;21.92;95.84;101057.63;6058473;23;20026;-76
2022/08/26 09:31:31;;;;;;;6.93;6.53;;;;;;;20.68;95.49;100861.00;6081576;23;20178;-76
2022/08/26 09:34:13;;;;;;;6.82;6.15;;;;;;;22.01;95.75;101079.13;6059693;23;20010;-76
2022/08/26 09:36:50;;;;;;;6.53;6.15;;;;;;;22.06;95.04;101072.34;6028472;23;20031;-75
2022/08/26 09:39:27;;;;;;;8.60;7.90;;;;;;;22.09;94.91;101084.56;6082049;23;20054;-75
2022/08/26 09:42:05;;;;;;;6.47;6.07;;;;;;;22.23;94.13;101081.47;6041850;23;20014;-75
2022/08/26 09:44:34;;;;;;;6.50;6.10;;;;;;;22.25;93.21;101084.00;6079275;23;20022;-76
2022/08/26 09:47:06;;;;;;;6.50;6.10;;;;;;;21.99;93.53;101036.53;6031627;23;20034;-75
2022/08/26 09:49:39;;;;;;;6.95;6.40;;;;;;;22.13;93.95;101045.03;6082683;23;20096;-75
2022/08/26 09:52:24;;;;;;;6.63;6.22;;;;;;;22.47;93.82;101075.63;6045787;23;20026;-76
2022/08/26 09:55:22;;;;;;;6.60;5.85;;;;;;;22.56;93.05;101075.72;6087584;23;20654;-76
2022/08/26 09:57:51;;;;;;;6.70;6.30;;;;;;;22.55;93.34;101079.34;6048831;23;20022;-75
2022/08/26 10:00:54;;;;;;;10.48;7.70;;;;;;;22.62;92.35;101072.44;6079016;23;20036;-75
2022/08/26 10:03:28;;;;;;;7.63;7.22;;;;;;;22.20;91.90;100980.16;6049470;23;20037;-77
2022/08/26 10:05:59;;;;;;;5.82;5.53;;;;;;;22.61;90.83;101068.94;6005005;23;20019;-76
2022/08/26 10:08:36;;;;;;;6.40;6.05;;;;;;;22.59;91.35;101051.31;6074474;23;20082;-76
2022/08/26 10:11:25;;;;;;;6.30;5.90;;;;;;;22.57;92.37;101064.88;6027803;23;20034;-75
2022/08/26 10:14:21;;;;;;;6.70;6.30;;;;;;;22.50;91.31;101029.00;6085708;23;20510;-76
2022/08/26 10:16:50;;;;;;;6.47;6.07;;;;;;;22.84;90.49;101060.47;6020879;23;20019;-76
2022/08/26 10:19:43;;;;;;;8.50;7.25;;;;;;;22.52;89.97;100986.06;6067405;23;20033;-76
2022/08/26 10:22:33;;;;;;;7.45;6.95;;;;;;;23.15;89.43;101058.28;6026844;23;20022;-75
2022/08/26 10:25:04;;;;;;;5.95;5.65;;;;;;;22.62;87.28;100989.50;6074855;23;20014;-77
2022/08/26 10:27:42;;;;;;;6.47;6.07;;;;;;;23.15;87.36;101041.38;6057408;23;20019;-76
2022/08/26 10:30:22;;;;;;;7.45;7.05;;;;;;;23.37;86.85;101050.78;6075265;23;20022;-77
2022/08/26 10:32:59;;;;;;;6.50;6.10;;;;;;;23.53;86.44;101055.41;6034448;23;20011;-76
2022/08/26 10:35:26;;;;;;;6.28;5.97;;;;;;;23.24;85.00;101022.56;6092058;23;20029;-76
2022/08/26 10:37:59;;;;;;;6.28;5.88;;;;;;;23.53;85.10;101055.41;6031459;23;20019;-75
2022/08/26 10:40:34;;;;;;;6.38;6.00;;;;;;;23.37;84.36;101006.06;6080118;23;20020;-76
2022/08/26 10:43:11;;;;;;;6.35;5.95;;;;;;;23.34;83.89;101025.16;6023315;23;20419;-76
2022/08/26 10:45:46;;;;;;;6.28;5.90;;;;;;;23.61;84.49;101045.59;6061688;23;20059;-75
2022/08/26 10:48:20;;;;;;;7.60;7.20;;;;;;;23.83;84.04;101051.47;6023050;23;20041;-77
2022/08/26 10:50:47;;;;;;;6.45;5.93;;;;;;;23.44;82.33;100990.25;6087008;23;20337;-75
2022/08/26 10:53:23;;;;;;;7.32;6.75;;;;;;;23.75;82.95;101043.34;6022587;23;20014;-75
2022/08/26 10:56:04;;;;;;;6.22;5.88;;;;;;;24.04;82.51;101041.22;6086550;23;20021;-76
2022/08/26 10:58:58;;;;;;;8.00;6.45;;;;;;;23.28;80.08;100927.53;6051448;23;20105;-76
2022/08/26 11:01:45;;;;;;;6.53;6.13;;;;;;;24.14;80.61;101034.91;6077175;23;20523;-76
2022/08/26 11:04:19;;;;;;;7.93;7.53;;;;;;;24.21;80.17;101036.75;6050781;23;20022;-76
2022/08/26 11:06:47;;;;;;;6.75;6.25;;;;;;;24.33;79.26;101037.31;6065330;23;20025;-76
2022/08/26 11:09:44;;;;;;;7.88;7.38;;;;;;;24.04;78.89;101035.84;6016856;23;20027;-76
2022/08/26 11:12:35;;;;;;;8.30;7.57;;;;;;;24.26;78.63;101036.28;6038118;23;20027;-76
2022/08/26 11:15:11;;;;;;;6.55;5.95;;;;;;;24.35;77.95;100989.69;6041958;23;20023;-76
2022/08/26 11:17:45;;;;;;;6.60;6.20;;;;;;;24.92;76.41;101020.38;6058187;23;20042;-76
2022/08/26 11:20:20;;;;;;;8.48;7.50;;;;;;;25.16;75.30;101017.72;6021463;23;20029;-76
2022/08/26 11:22:50;;;;;;;8.25;7.63;;;;;;;24.61;73.81;100978.06;6056406;23;20530;-74
2022/08/26 11:25:21;;;;;;;6.63;6.13;;;;;;;24.31;76.45;100934.69;6033243;23;20022;-76
2022/08/26 11:27:58;;;;;;;6.47;6.18;;;;;;;24.76;75.30;100986.31;6015687;23;20031;-76
2022/08/26 11:30:24;;;;;;;7.10;6.57;;;;;;;24.96;75.53;101017.19;6055642;23;20029;-75
2022/08/26 11:32:56;;;;;;;6.22;5.82;;;;;;;24.69;76.68;101016.47;6007730;23;20027;-75
2022/08/26 11:35:23;;;;;;;7.80;7.20;;;;;;;24.84;76.69;101015.84;6080142;23;20601;-75
2022/08/26 11:37:57;;;;;;;6.53;6.13;;;;;;;24.04;79.61;100962.63;6025365;23;20046;-75
2022/08/26 11:40:27;;;;;;;7.13;6.63;;;;;;;24.40;81.70;101026.78;6052157;23;20467;-75